createdAt,value
2023-04-10T00:00:39.414Z,8.87
2023-04-10T00:03:07.418Z,9.40
2023-04-10T00:05:35.207Z,9.20
2023-04-10T00:08:03.327Z,9.57
2023-04-10T00:10:32.403Z,9.37
2023-04-10T00:13:00.956Z,9.67
2023-04-10T00:15:28.931Z,9.37
2023-04-10T00:17:56.561Z,9.83
2023-04-10T00:20:27.796Z,8.73
2023-04-10T00:22:56.309Z,9.33
2023-04-10T00:25:24.061Z,9.60
2023-04-10T00:27:53.098Z,9.13
2023-04-10T00:30:22.685Z,9.13
2023-04-10T00:32:50.367Z,9.40
2023-04-10T00:35:18.016Z,9.37
2023-04-10T00:37:46.662Z,9.23
2023-04-10T00:40:14.274Z,9.70
2023-04-10T00:42:41.964Z,9.23
2023-04-10T00:45:10.302Z,9.53
2023-04-10T00:47:38.165Z,9.63
2023-04-10T00:50:06.618Z,9.53
2023-04-10T00:52:35.148Z,9.13
2023-04-10T00:55:03.634Z,9.03
2023-04-10T00:57:32.215Z,9.63
2023-04-10T01:00:00.669Z,8.97
2023-04-10T01:02:29.743Z,10.13
2023-04-10T01:04:57.834Z,10.17
2023-04-10T01:07:43.152Z,10.40
2023-04-10T01:10:48.562Z,9.93
2023-04-10T01:13:27.774Z,9.77
2023-04-10T01:16:05.451Z,10.20
2023-04-10T01:18:46.344Z,9.47
2023-04-10T01:21:16.240Z,9.67
2023-04-10T01:23:53.058Z,9.83
2023-04-10T01:26:44.862Z,9.80
2023-04-10T01:29:19.654Z,10.30
2023-04-10T01:32:11.173Z,10.47
2023-04-10T01:34:49.523Z,10.20
2023-04-10T02:02:33.872Z,10.63
2023-04-10T02:05:01.890Z,10.23
2023-04-10T02:07:41.736Z,10.30
2023-04-10T02:10:22.379Z,11.13
2023-04-10T02:12:54.054Z,9.77
2023-04-10T02:15:24.051Z,9.90
2023-04-10T02:17:53.037Z,11.00
2023-04-10T02:20:22.439Z,10.87
2023-04-10T02:22:50.731Z,10.43
2023-04-10T02:25:18.575Z,10.57
2023-04-10T02:27:46.254Z,11.20
2023-04-10T02:30:13.887Z,10.63
2023-04-10T02:32:42.014Z,10.23
2023-04-10T02:35:09.732Z,11.73
2023-04-10T02:37:37.405Z,10.77
2023-04-10T02:40:05.674Z,13.23
2023-04-10T02:42:33.276Z,13.93
2023-04-10T02:45:00.992Z,13.83
2023-04-10T02:47:28.721Z,14.20
2023-04-10T02:49:57.062Z,14.87
2023-04-10T02:52:24.746Z,13.20
2023-04-10T02:54:52.502Z,14.00
2023-04-10T02:57:21.347Z,13.20
2023-04-10T02:59:52.231Z,12.90
2023-04-10T03:02:19.968Z,12.47
2023-04-10T03:04:47.677Z,12.40
2023-04-10T03:07:15.553Z,11.47
2023-04-10T03:09:43.195Z,10.37
2023-04-10T03:12:13.033Z,10.30
2023-04-10T03:14:43.116Z,10.27
2023-04-10T03:17:12.149Z,10.73
2023-04-10T03:19:39.801Z,10.30
2023-04-10T03:22:07.475Z,10.43
2023-04-10T03:24:35.118Z,10.00
2023-04-10T03:27:02.953Z,10.20
2023-04-10T03:29:30.590Z,11.33
2023-04-10T03:31:58.363Z,11.23
2023-04-10T03:34:29.138Z,11.07
2023-04-10T03:36:56.734Z,11.00
2023-04-10T03:39:24.793Z,11.83
2023-04-10T03:41:52.441Z,12.13
2023-04-10T03:44:20.380Z,11.43
2023-04-10T03:46:48.160Z,11.63
2023-04-10T03:49:16.328Z,11.50
2023-04-10T03:51:43.919Z,11.13
2023-04-10T03:54:13.689Z,11.00
2023-04-10T03:56:44.313Z,11.20
2023-04-10T03:59:12.000Z,11.77
2023-04-10T04:01:39.837Z,11.83
2023-04-10T04:04:07.663Z,11.40
2023-04-10T04:06:35.689Z,11.60
2023-04-10T04:09:03.502Z,11.53
2023-04-10T04:11:31.572Z,11.33
2023-04-10T04:13:59.278Z,11.90
2023-04-10T04:16:27.324Z,11.83
2023-04-10T04:18:54.942Z,12.03
2023-04-10T04:21:25.917Z,11.57
2023-04-10T04:23:53.887Z,18.27
2023-04-10T04:26:22.116Z,47.40
2023-04-10T04:28:49.721Z,28.77
2023-04-10T04:31:17.459Z,30.03
2023-04-10T04:33:45.388Z,20.80
2023-04-10T04:36:12.990Z,17.97
2023-04-10T04:38:40.638Z,15.03
2023-04-10T04:41:08.337Z,13.47
2023-04-10T04:43:36.150Z,13.70
2023-04-10T04:46:03.905Z,18.73
2023-04-10T04:48:31.528Z,13.27
2023-04-10T04:50:59.138Z,12.33
2023-04-10T04:53:26.759Z,12.43
2023-04-10T04:55:54.365Z,11.73
2023-04-10T04:58:23.683Z,11.00
2023-04-10T05:00:54.998Z,13.10
2023-04-10T05:03:23.042Z,13.07
2023-04-10T05:05:50.957Z,13.03
2023-04-10T05:08:18.575Z,13.17
2023-04-10T05:10:46.453Z,12.43
2023-04-10T05:13:15.577Z,12.83
2023-04-10T05:15:44.608Z,12.60
2023-04-10T05:18:13.760Z,12.43
2023-04-10T05:20:41.569Z,12.97
2023-04-10T05:23:09.279Z,12.40
2023-04-10T05:25:36.893Z,12.70
2023-04-10T05:28:04.598Z,12.90
2023-04-10T05:30:32.225Z,13.30
2023-04-10T05:32:59.852Z,13.60
2023-04-10T05:35:27.437Z,12.70
2023-04-10T05:37:55.169Z,12.77
2023-04-10T05:40:22.772Z,12.57
2023-04-10T05:42:51.258Z,12.00
2023-04-10T05:45:18.837Z,13.27
2023-04-10T05:47:46.620Z,12.53
2023-04-10T05:50:14.367Z,12.37
2023-04-10T05:52:42.138Z,12.67
2023-04-10T05:55:10.003Z,12.33
2023-04-10T05:57:39.510Z,11.73
2023-04-10T06:00:08.087Z,12.00
2023-04-10T06:02:35.847Z,11.63
2023-04-10T06:05:04.210Z,11.30
2023-04-10T06:07:33.260Z,12.10
2023-04-10T06:10:01.101Z,12.00
2023-04-10T06:12:28.751Z,12.13
2023-04-10T06:14:56.542Z,12.00
2023-04-10T06:17:25.992Z,12.40
2023-04-10T06:19:53.773Z,11.97
2023-04-10T06:22:21.413Z,13.00
2023-04-10T06:24:49.304Z,12.37
2023-04-10T06:27:17.078Z,12.27
2023-04-10T06:29:44.890Z,12.67
2023-04-10T06:32:14.947Z,11.73
2023-04-10T06:34:42.544Z,11.80
2023-04-10T06:37:10.451Z,11.97
2023-04-10T06:39:39.345Z,11.90
2023-04-10T06:42:07.022Z,11.60
2023-04-10T06:44:34.717Z,11.30
2023-04-10T06:47:02.526Z,11.63
2023-04-10T06:49:30.315Z,11.80
2023-04-10T06:51:57.979Z,11.87
2023-04-10T06:54:25.610Z,11.90
2023-04-10T06:56:53.327Z,11.80
2023-04-10T06:59:21.070Z,11.67
2023-04-10T07:01:48.708Z,12.17
2023-04-10T07:04:16.492Z,12.43
2023-04-10T07:06:44.280Z,11.80
2023-04-10T07:09:12.142Z,12.67
2023-04-10T07:11:39.820Z,12.83
2023-04-10T07:14:07.471Z,11.43
2023-04-10T07:16:35.124Z,11.63
2023-04-10T07:19:02.840Z,11.40
2023-04-10T07:21:30.465Z,11.03
2023-04-10T07:23:58.149Z,12.00
2023-04-10T07:26:26.043Z,11.83
2023-04-10T07:28:53.930Z,11.63
2023-04-10T07:31:21.820Z,12.57
2023-04-10T07:33:50.009Z,12.03
2023-04-10T07:36:17.738Z,11.80
2023-04-10T07:38:45.592Z,11.27
2023-04-10T07:41:14.088Z,11.87
2023-04-10T07:43:41.656Z,11.60
2023-04-10T07:46:09.401Z,11.93
2023-04-10T07:48:37.144Z,11.30
2023-04-10T07:51:05.560Z,11.63
2023-04-10T07:53:33.125Z,11.70
2023-04-10T07:56:00.756Z,10.87
2023-04-10T07:58:28.634Z,11.33
2023-04-10T08:00:56.281Z,12.23
2023-04-10T08:03:24.165Z,10.67
2023-04-10T08:05:52.087Z,11.33
2023-04-10T08:08:19.772Z,11.63
2023-04-10T08:10:47.384Z,11.50
2023-04-10T08:13:15.575Z,10.83
2023-04-10T08:15:43.254Z,11.37
2023-04-10T08:18:10.835Z,10.43
2023-04-10T08:20:38.509Z,11.20
2023-04-10T08:23:17.009Z,10.83
2023-04-10T08:25:47.763Z,10.43
2023-04-10T08:28:15.330Z,10.63
2023-04-10T08:30:42.921Z,10.13
2023-04-10T08:33:10.579Z,10.60
2023-04-10T08:35:38.249Z,11.03
2023-04-10T08:40:38.311Z,10.53
2023-04-10T08:43:06.354Z,11.23
2023-04-10T08:45:34.228Z,11.30
2023-04-10T08:48:07.766Z,11.17
2023-04-10T08:50:42.258Z,10.30
2023-04-10T08:53:13.418Z,10.57
2023-04-10T08:55:42.138Z,10.90
2023-04-10T08:58:11.375Z,11.43
2023-04-10T09:00:39.489Z,11.33
2023-04-10T09:03:15.029Z,11.00
2023-04-10T09:05:43.123Z,11.60
2023-04-10T09:08:13.607Z,11.63
2023-04-10T09:10:41.264Z,11.13
2023-04-10T09:13:08.922Z,10.87
2023-04-10T09:15:57.247Z,11.00
2023-04-10T09:18:41.635Z,8.87
2023-04-10T09:21:15.032Z,7.17
2023-04-10T09:23:44.550Z,6.93
2023-04-10T09:26:25.701Z,6.60
2023-04-10T09:29:04.611Z,6.80
2023-04-10T09:31:35.685Z,5.63
2023-04-10T09:34:17.080Z,6.00
2023-04-10T09:36:56.768Z,5.37
2023-04-10T09:39:35.479Z,5.30
2023-04-10T09:42:03.464Z,4.47
2023-04-10T09:44:37.342Z,4.80
2023-04-10T09:47:14.365Z,6.00
2023-04-10T09:49:48.245Z,5.67
2023-04-10T09:52:30.096Z,5.90
2023-04-10T09:54:59.003Z,5.57
2023-04-10T09:57:30.714Z,6.80
2023-04-10T10:00:03.682Z,6.40
2023-04-10T10:02:33.943Z,6.27
2023-04-10T10:05:04.627Z,5.90
2023-04-10T10:07:32.591Z,5.50
2023-04-10T10:10:02.672Z,5.23
2023-04-10T10:13:08.518Z,6.10
2023-04-10T10:15:46.793Z,5.80
2023-04-10T10:18:25.460Z,5.80
2023-04-10T10:20:53.890Z,5.87
2023-04-10T10:23:25.435Z,6.13
2023-04-10T10:25:56.464Z,5.37
2023-04-10T10:28:25.480Z,5.78
2023-04-10T10:30:54.823Z,5.93
2023-04-10T10:33:22.990Z,5.70
2023-04-10T10:35:50.858Z,6.38
2023-04-10T10:38:19.135Z,5.63
2023-04-10T10:40:54.747Z,6.20
2023-04-10T10:43:52.905Z,6.13
2023-04-10T10:46:46.530Z,6.10
2023-04-10T10:49:14.114Z,6.78
2023-04-10T10:51:47.753Z,6.20
2023-04-10T10:54:28.205Z,6.07
2023-04-10T10:56:57.579Z,5.50
2023-04-10T10:59:46.172Z,5.20
2023-04-10T11:02:16.644Z,5.45
2023-04-10T11:04:51.789Z,5.30
2023-04-10T11:07:19.653Z,4.80
2023-04-10T11:09:57.203Z,4.50
2023-04-10T11:12:25.858Z,4.70
2023-04-10T11:15:03.016Z,4.40
2023-04-10T11:17:51.251Z,3.97
2023-04-10T11:20:21.995Z,4.60
2023-04-10T11:23:11.863Z,4.15
2023-04-10T11:25:51.219Z,4.20
2023-04-10T11:28:36.826Z,4.18
2023-04-10T11:31:18.479Z,4.50
2023-04-10T11:33:53.615Z,4.20
2023-04-10T11:36:21.331Z,4.00
2023-04-10T11:39:05.871Z,4.57
2023-04-10T11:41:36.602Z,4.72
2023-04-10T11:44:07.024Z,4.22
2023-04-10T11:46:39.230Z,4.30
2023-04-10T11:49:09.932Z,4.40
2023-04-10T11:51:39.491Z,4.70
2023-04-10T11:54:09.838Z,4.45
2023-04-10T11:56:39.876Z,4.20
2023-04-10T11:59:10.538Z,4.03
2023-04-10T12:01:39.942Z,4.10
2023-04-10T12:04:21.462Z,3.67
2023-04-10T12:06:51.452Z,3.95
2023-04-10T12:09:21.084Z,3.95
2023-04-10T12:12:03.487Z,3.92
2023-04-10T12:14:34.129Z,3.83
2023-04-10T12:17:03.294Z,3.80
2023-04-10T12:19:34.116Z,3.47
2023-04-10T12:22:05.068Z,3.83
2023-04-10T12:24:44.488Z,3.78
2023-04-10T12:27:22.372Z,3.90
2023-04-10T12:29:53.002Z,3.47
2023-04-10T12:32:21.244Z,3.08
2023-04-10T12:34:59.230Z,4.28
2023-04-10T12:37:50.642Z,3.45
2023-04-10T12:40:20.593Z,3.28
2023-04-10T12:42:48.338Z,3.20
2023-04-10T12:45:15.922Z,3.47
2023-04-10T12:47:50.841Z,3.53
2023-04-10T12:50:22.544Z,3.13
2023-04-10T12:53:04.283Z,3.60
2023-04-10T12:55:32.864Z,3.25
2023-04-10T12:58:17.462Z,2.83
2023-04-10T13:00:45.491Z,3.10
2023-04-10T13:03:13.311Z,2.67
2023-04-10T13:05:49.620Z,2.90
2023-04-10T13:08:20.977Z,2.67
2023-04-10T13:10:49.472Z,2.75
2023-04-10T13:13:17.560Z,2.65
2023-04-10T13:15:45.369Z,2.58
2023-04-10T13:18:12.982Z,2.85
2023-04-10T13:20:41.458Z,2.42
2023-04-10T13:23:09.159Z,2.75
2023-04-10T13:25:39.838Z,2.15
2023-04-10T13:28:16.047Z,2.50
2023-04-10T13:30:43.848Z,2.60
2023-04-10T13:33:11.531Z,2.50
2023-04-10T13:35:40.322Z,2.38
2023-04-10T13:38:11.518Z,2.35
2023-04-10T13:40:39.256Z,2.70
2023-04-10T13:43:06.896Z,2.80
2023-04-10T13:45:34.968Z,2.20
2023-04-10T13:48:02.782Z,2.40
2023-04-10T13:50:30.500Z,2.28
2023-04-10T13:52:58.442Z,2.67
2023-04-10T13:55:28.816Z,2.80
2023-04-10T13:57:56.534Z,2.30
2023-04-10T14:00:24.178Z,2.75
2023-04-10T14:02:52.073Z,2.60
2023-04-10T14:05:19.806Z,2.40
2023-04-10T14:07:47.387Z,2.28
2023-04-10T14:10:15.002Z,2.30
2023-04-10T14:12:42.551Z,2.13
2023-04-10T14:15:10.691Z,2.35
2023-04-10T14:17:41.306Z,2.30
2023-04-10T14:20:11.450Z,2.22
2023-04-10T14:22:39.271Z,2.10
2023-04-10T14:25:13.135Z,2.08
2023-04-10T14:27:42.765Z,2.33
2023-04-10T14:30:11.044Z,2.40
2023-04-10T14:32:39.373Z,2.10
2023-04-10T14:35:07.837Z,2.50
2023-04-10T14:37:35.511Z,2.00
2023-04-10T14:40:04.965Z,2.30
2023-04-10T14:42:32.748Z,2.30
2023-04-10T14:45:03.169Z,2.25
2023-04-10T14:47:30.855Z,2.45
2023-04-10T14:49:58.517Z,2.10
2023-04-10T14:52:26.118Z,1.95
2023-04-10T14:54:53.777Z,2.00
2023-04-10T14:57:21.430Z,1.92
2023-04-10T14:59:49.007Z,2.00
2023-04-10T15:02:16.638Z,2.10
2023-04-10T15:04:44.299Z,1.50
2023-04-10T15:07:13.979Z,1.88
2023-04-10T15:09:43.073Z,1.40
2023-04-10T15:12:10.903Z,1.40
2023-04-10T15:14:38.478Z,1.27
2023-04-10T15:17:06.120Z,1.40
2023-04-10T15:19:33.963Z,1.30
2023-04-10T15:22:01.570Z,1.35
2023-04-10T15:24:32.441Z,1.45
2023-04-10T15:27:02.225Z,1.17
2023-04-10T15:29:32.424Z,1.60
2023-04-10T15:32:00.437Z,1.45
2023-04-10T15:34:28.087Z,1.40
2023-04-10T15:36:55.975Z,1.60
2023-04-10T15:39:23.669Z,1.30
2023-04-10T15:41:51.316Z,1.33
2023-04-10T15:44:19.019Z,1.35
2023-04-10T15:46:47.192Z,1.35
2023-04-10T15:49:23.200Z,1.40
2023-04-10T15:51:58.184Z,1.50
2023-04-10T15:54:25.783Z,1.23
2023-04-10T15:56:53.425Z,1.40
2023-04-10T15:59:21.105Z,1.40
2023-04-10T16:01:48.816Z,1.50
2023-04-10T16:04:16.657Z,1.63
2023-04-10T16:06:47.759Z,1.50
2023-04-10T16:09:25.525Z,1.55
2023-04-10T16:11:56.414Z,1.63
2023-04-10T16:14:24.067Z,1.60
2023-04-10T16:16:51.699Z,1.60
2023-04-10T16:19:19.392Z,1.77
2023-04-10T16:21:47.012Z,1.50
2023-04-10T16:24:14.789Z,1.58
2023-04-10T16:26:42.463Z,1.90
2023-04-10T16:29:10.303Z,2.00
2023-04-10T16:31:37.982Z,1.90
2023-04-10T16:34:05.814Z,1.80
2023-04-10T16:36:33.429Z,2.20
2023-04-10T16:39:01.091Z,1.60
2023-04-10T16:41:28.725Z,2.00
2023-04-10T16:43:57.434Z,2.17
2023-04-10T16:46:25.592Z,2.00
2023-04-10T16:48:56.369Z,2.10
2023-04-10T16:51:24.602Z,2.00
2023-04-10T16:53:52.365Z,2.00
2023-04-10T16:56:19.993Z,1.85
2023-04-10T16:58:47.637Z,1.95
2023-04-10T17:01:27.546Z,1.80
2023-04-10T17:03:55.556Z,2.30
2023-04-10T17:06:23.305Z,2.20
2023-04-10T17:09:02.860Z,2.60
2023-04-10T17:11:30.896Z,2.58
2023-04-10T17:13:58.659Z,2.10
2023-04-10T17:16:26.298Z,2.10
2023-04-10T17:18:54.355Z,2.20
2023-04-10T17:21:22.355Z,2.45
2023-04-10T17:23:50.307Z,2.70
2023-04-10T17:26:18.226Z,3.25
2023-04-10T17:28:46.331Z,3.25
2023-04-10T17:31:14.462Z,4.28
2023-04-10T17:33:42.863Z,5.00
2023-04-10T17:36:12.250Z,4.27
2023-04-10T17:38:41.708Z,3.60
2023-04-10T17:41:10.303Z,2.53
2023-04-10T17:43:40.803Z,2.40
2023-04-10T17:46:13.842Z,2.55
2023-04-10T17:48:42.648Z,2.70
2023-04-10T17:51:13.293Z,2.57
2023-04-10T17:53:41.250Z,2.40
2023-04-10T17:56:16.661Z,2.40
2023-04-10T17:58:44.229Z,2.30
2023-04-10T18:01:12.670Z,2.30
2023-04-10T18:03:40.419Z,2.30
2023-04-10T18:06:08.425Z,2.37
2023-04-10T18:08:38.894Z,2.30
2023-04-10T18:11:06.601Z,3.33
2023-04-10T18:13:34.402Z,2.37
2023-04-10T18:16:02.400Z,2.30
2023-04-10T18:18:30.048Z,2.50
2023-04-10T18:20:57.666Z,2.43
2023-04-10T18:23:27.067Z,2.27
2023-04-10T18:25:55.949Z,2.37
2023-04-10T18:28:26.822Z,2.20
2023-04-10T18:30:56.659Z,2.60
2023-04-10T18:33:25.204Z,2.60
2023-04-10T18:35:59.024Z,2.00
2023-04-10T18:38:27.152Z,2.60
2023-04-10T18:40:56.818Z,2.13
2023-04-10T18:43:25.622Z,2.30
2023-04-10T18:45:53.828Z,4.53
2023-04-10T18:48:21.881Z,2.20
2023-04-10T18:50:53.065Z,2.23
2023-04-10T18:53:21.731Z,2.40
2023-04-10T18:55:51.086Z,2.20
2023-04-10T18:58:19.654Z,2.50
2023-04-10T19:00:52.997Z,2.47
2023-04-10T19:03:20.745Z,2.77
2023-04-10T19:05:48.559Z,3.20
2023-04-10T19:08:17.130Z,2.70
2023-04-10T19:10:44.796Z,2.70
2023-04-10T19:13:12.819Z,3.40
2023-04-10T19:15:47.197Z,3.60
2023-04-10T19:18:16.412Z,2.93
2023-04-10T19:20:50.810Z,2.40
2023-04-10T19:23:21.436Z,2.80
2023-04-10T19:25:54.053Z,2.20
2023-04-10T19:28:23.250Z,2.80
2023-04-10T19:30:51.295Z,2.67
2023-04-10T19:33:21.772Z,2.73
2023-04-10T19:35:49.532Z,2.77
2023-04-10T19:38:17.384Z,2.60
2023-04-10T19:40:45.291Z,3.03
2023-04-10T19:43:16.684Z,2.87
2023-04-10T19:45:44.334Z,3.00
2023-04-10T19:48:12.218Z,3.00
2023-04-10T19:50:39.862Z,2.80
2023-04-10T19:53:07.709Z,3.70
2023-04-10T19:55:35.333Z,2.80
2023-04-10T19:58:04.043Z,3.10
2023-04-10T20:00:31.735Z,3.57
2023-04-10T20:02:59.527Z,3.57
2023-04-10T20:05:27.311Z,3.60
2023-04-10T20:07:55.449Z,3.50
2023-04-10T20:10:23.166Z,3.40
2023-04-10T20:12:50.771Z,4.90
2023-04-10T20:15:20.439Z,3.80
2023-04-10T20:17:49.435Z,3.47
2023-04-10T20:20:19.705Z,3.83
2023-04-10T20:22:47.355Z,3.60
2023-04-10T20:25:14.981Z,3.47
2023-04-10T20:27:45.227Z,3.60
2023-04-10T20:30:12.878Z,3.63
2023-04-10T20:32:40.583Z,3.47
2023-04-10T20:35:09.454Z,4.10
2023-04-10T20:37:37.285Z,3.23
2023-04-10T20:40:05.407Z,3.13
2023-04-10T20:42:33.023Z,3.30
2023-04-10T20:45:00.852Z,3.20
2023-04-10T20:47:29.346Z,3.40
2023-04-10T20:49:57.084Z,2.93
2023-04-10T20:52:24.718Z,3.50
2023-04-10T20:54:52.518Z,3.97
2023-04-10T20:57:20.308Z,3.33
2023-04-10T20:59:48.082Z,3.30
2023-04-10T21:02:18.129Z,3.97
2023-04-10T21:04:46.095Z,3.00
2023-04-10T21:07:13.721Z,3.03
2023-04-10T21:09:41.415Z,3.43
2023-04-10T21:12:09.062Z,3.17
2023-04-10T21:14:36.702Z,2.90
2023-04-10T21:17:04.408Z,2.90
2023-04-10T21:19:32.041Z,3.00
2023-04-10T21:21:59.806Z,2.97
2023-04-10T21:24:28.725Z,3.03
2023-04-10T21:26:56.366Z,3.03
2023-04-10T21:29:24.433Z,3.27
2023-04-10T21:31:52.286Z,2.53
2023-04-10T21:34:20.057Z,2.70
2023-04-10T21:36:47.749Z,3.47
2023-04-10T21:39:15.344Z,3.00
2023-04-10T21:41:44.161Z,2.70
2023-04-10T21:44:11.776Z,2.60
2023-04-10T21:46:39.455Z,2.40
2023-04-10T21:49:07.151Z,2.20
2023-04-10T21:51:35.009Z,2.40
2023-04-10T21:54:02.821Z,2.30
2023-04-10T21:56:30.609Z,2.20
2023-04-10T21:58:58.317Z,2.20
2023-04-10T22:01:26.268Z,2.77
2023-04-10T22:03:54.315Z,2.40
2023-04-10T22:06:22.065Z,2.60
